Terminal Aerodrome Forecast
Issued by NWS Sterling, VA

Current Version | Previous Version | Text Only | Print | Product List | Glossary Off
Versions: 1 2 3 4 5 6 7 8 9 10 11 12 13 14 15 16 17 18

000
FTUS41 KLWX 011131
TAFMRB
TAF
KMRB 011131Z 0112/0212 15006KT 3SM -SN BKN015 OVC025
     FM011300 17007KT 1SM -SN BKN010 OVC020
     FM011800 17007KT 2SM -FZRASNPL BR BKN010 OVC020
     FM012100 16006KT 3SM -FZRA BR BKN015 OVC020
     FM020000 VRB04KT P6SM SCT050
     FM020900 30008KT P6SM SCT050=

USA.gov is the U.S. government's official web portal to all federal, state and local government web resources and services.